sensor_id;sensor_type;location;lat;lon;timestamp;P1;durP1;ratioP1;P2;durP2;ratioP2
13807;SDS011;40769;51.512;5.494;2022-07-30T00:00:01;5.25;;;3.47;;
13807;SDS011;40769;51.512;5.494;2022-07-30T00:02:28;2.58;;;2.28;;
13807;SDS011;40769;51.512;5.494;2022-07-30T00:04:54;3.55;;;3.22;;
13807;SDS011;40769;51.512;5.494;2022-07-30T00:07:19;3.13;;;2.78;;
13807;SDS011;40769;51.512;5.494;2022-07-30T00:09:45;3.40;;;3.10;;
13807;SDS011;40769;51.512;5.494;2022-07-30T00:12:11;4.75;;;3.75;;
13807;SDS011;40769;51.512;5.494;2022-07-30T00:14:36;4.20;;;3.80;;
13807;SDS011;40769;51.512;5.494;2022-07-30T00:17:02;5.60;;;4.43;;
13807;SDS011;40769;51.512;5.494;2022-07-30T00:19:28;6.60;;;4.88;;
13807;SDS011;40769;51.512;5.494;2022-07-30T00:21:55;4.82;;;3.55;;
13807;SDS011;40769;51.512;5.494;2022-07-30T00:24:21;5.55;;;3.97;;
13807;SDS011;40769;51.512;5.494;2022-07-30T00:26:47;5.25;;;3.75;;
13807;SDS011;40769;51.512;5.494;2022-07-30T00:29:13;3.60;;;3.30;;
13807;SDS011;40769;51.512;5.494;2022-07-30T00:31:38;4.20;;;3.58;;
13807;SDS011;40769;51.512;5.494;2022-07-30T00:34:04;5.97;;;3.55;;
13807;SDS011;40769;51.512;5.494;2022-07-30T00:36:30;3.30;;;3.00;;
13807;SDS011;40769;51.512;5.494;2022-07-30T00:38:56;3.55;;;2.92;;
13807;SDS011;40769;51.512;5.494;2022-07-30T00:41:22;5.03;;;4.13;;
13807;SDS011;40769;51.512;5.494;2022-07-30T00:43:48;4.20;;;3.45;;
13807;SDS011;40769;51.512;5.494;2022-07-30T00:46:14;7.05;;;4.47;;
13807;SDS011;40769;51.512;5.494;2022-07-30T00:48:40;5.30;;;4.80;;
13807;SDS011;40769;51.512;5.494;2022-07-30T00:51:06;4.75;;;4.25;;
13807;SDS011;40769;51.512;5.494;2022-07-30T00:53:33;4.53;;;4.00;;
13807;SDS011;40769;51.512;5.494;2022-07-30T00:55:59;3.47;;;3.17;;
13807;SDS011;40769;51.512;5.494;2022-07-30T00:58:24;4.30;;;3.90;;
13807;SDS011;40769;51.512;5.494;2022-07-30T01:00:50;4.78;;;3.97;;
13807;SDS011;40769;51.512;5.494;2022-07-30T01:03:16;4.13;;;3.60;;
13807;SDS011;40769;51.512;5.494;2022-07-30T01:05:41;5.38;;;4.10;;
13807;SDS011;40769;51.512;5.494;2022-07-30T01:08:07;4.72;;;4.22;;
13807;SDS011;40769;51.512;5.494;2022-07-30T01:10:33;3.38;;;3.17;;
13807;SDS011;40769;51.512;5.494;2022-07-30T01:12:58;6.93;;;4.60;;
13807;SDS011;40769;51.512;5.494;2022-07-30T01:15:26;3.53;;;3.22;;
13807;SDS011;40769;51.512;5.494;2022-07-30T01:17:52;5.07;;;4.57;;
13807;SDS011;40769;51.512;5.494;2022-07-30T01:20:25;4.53;;;3.72;;
13807;SDS011;40769;51.512;5.494;2022-07-30T01:25:59;3.55;;;3.25;;
13807;SDS011;40769;51.512;5.494;2022-07-30T01:28:30;6.25;;;4.20;;
13807;SDS011;40769;51.512;5.494;2022-07-30T01:30:59;5.00;;;4.55;;
13807;SDS011;40769;51.512;5.494;2022-07-30T01:33:27;3.40;;;3.17;;
13807;SDS011;40769;51.512;5.494;2022-07-30T01:35:54;4.30;;;3.95;;
13807;SDS011;40769;51.512;5.494;2022-07-30T01:38:22;5.18;;;4.78;;
13807;SDS011;40769;51.512;5.494;2022-07-30T01:40:50;5.40;;;4.90;;
13807;SDS011;40769;51.512;5.494;2022-07-30T01:43:17;4.40;;;4.10;;
13807;SDS011;40769;51.512;5.494;2022-07-30T01:45:45;5.63;;;5.15;;
13807;SDS011;40769;51.512;5.494;2022-07-30T01:48:12;4.28;;;3.97;;
13807;SDS011;40769;51.512;5.494;2022-07-30T01:50:41;3.70;;;3.40;;
13807;SDS011;40769;51.512;5.494;2022-07-30T01:53:08;3.92;;;3.63;;
13807;SDS011;40769;51.512;5.494;2022-07-30T01:55:39;5.13;;;4.70;;
13807;SDS011;40769;51.512;5.494;2022-07-30T01:58:06;6.13;;;5.50;;
13807;SDS011;40769;51.512;5.494;2022-07-30T02:00:35;5.43;;;4.93;;
13807;SDS011;40769;51.512;5.494;2022-07-30T02:03:03;6.00;;;4.50;;
13807;SDS011;40769;51.512;5.494;2022-07-30T02:05:30;5.28;;;4.85;;
13807;SDS011;40769;51.512;5.494;2022-07-30T02:08:00;6.97;;;5.60;;
13807;SDS011;40769;51.512;5.494;2022-07-30T02:10:58;5.40;;;5.00;;
13807;SDS011;40769;51.512;5.494;2022-07-30T02:13:40;5.60;;;5.10;;
13807;SDS011;40769;51.512;5.494;2022-07-30T02:16:17;4.40;;;4.00;;
13807;SDS011;40769;51.512;5.494;2022-07-30T02:21:22;4.75;;;4.35;;
13807;SDS011;40769;51.512;5.494;2022-07-30T02:23:49;5.95;;;5.45;;
13807;SDS011;40769;51.512;5.494;2022-07-30T02:26:17;8.27;;;7.38;;
13807;SDS011;40769;51.512;5.494;2022-07-30T02:28:47;7.68;;;6.78;;
13807;SDS011;40769;51.512;5.494;2022-07-30T02:31:16;6.60;;;6.05;;
13807;SDS011;40769;51.512;5.494;2022-07-30T02:33:47;6.90;;;6.30;;
13807;SDS011;40769;51.512;5.494;2022-07-30T02:36:17;6.10;;;5.50;;
13807;SDS011;40769;51.512;5.494;2022-07-30T02:38:43;6.55;;;5.95;;
13807;SDS011;40769;51.512;5.494;2022-07-30T02:41:10;7.07;;;5.35;;
13807;SDS011;40769;51.512;5.494;2022-07-30T02:43:38;7.40;;;6.70;;
13807;SDS011;40769;51.512;5.494;2022-07-30T02:46:05;6.40;;;5.82;;
13807;SDS011;40769;51.512;5.494;2022-07-30T02:48:33;7.75;;;6.95;;
13807;SDS011;40769;51.512;5.494;2022-07-30T02:51:02;5.97;;;5.50;;
13807;SDS011;40769;51.512;5.494;2022-07-30T02:53:30;6.10;;;5.50;;
13807;SDS011;40769;51.512;5.494;2022-07-30T02:55:58;5.93;;;5.53;;
13807;SDS011;40769;51.512;5.494;2022-07-30T02:58:25;6.78;;;6.20;;
13807;SDS011;40769;51.512;5.494;2022-07-30T03:00:52;8.35;;;7.60;;
13807;SDS011;40769;51.512;5.494;2022-07-30T03:03:18;8.18;;;7.30;;
13807;SDS011;40769;51.512;5.494;2022-07-30T03:05:45;5.53;;;5.03;;
13807;SDS011;40769;51.512;5.494;2022-07-30T03:08:15;5.80;;;5.18;;
13807;SDS011;40769;51.512;5.494;2022-07-30T03:10:41;5.53;;;5.03;;
13807;SDS011;40769;51.512;5.494;2022-07-30T03:13:09;7.00;;;6.40;;
13807;SDS011;40769;51.512;5.494;2022-07-30T03:15:36;7.25;;;6.57;;
13807;SDS011;40769;51.512;5.494;2022-07-30T03:18:06;5.82;;;5.32;;
13807;SDS011;40769;51.512;5.494;2022-07-30T03:20:36;7.03;;;6.35;;
13807;SDS011;40769;51.512;5.494;2022-07-30T03:23:03;7.63;;;6.90;;
13807;SDS011;40769;51.512;5.494;2022-07-30T03:25:30;5.75;;;5.15;;
13807;SDS011;40769;51.512;5.494;2022-07-30T03:27:57;9.68;;;8.75;;
13807;SDS011;40769;51.512;5.494;2022-07-30T03:30:25;8.13;;;7.45;;
13807;SDS011;40769;51.512;5.494;2022-07-30T03:32:52;9.07;;;8.20;;
13807;SDS011;40769;51.512;5.494;2022-07-30T03:35:19;9.88;;;6.10;;
13807;SDS011;40769;51.512;5.494;2022-07-30T03:37:48;9.05;;;8.15;;
13807;SDS011;40769;51.512;5.494;2022-07-30T03:40:15;8.85;;;8.00;;
13807;SDS011;40769;51.512;5.494;2022-07-30T03:42:41;7.53;;;6.82;;
13807;SDS011;40769;51.512;5.494;2022-07-30T03:45:09;7.68;;;6.85;;
13807;SDS011;40769;51.512;5.494;2022-07-30T03:47:37;7.70;;;7.03;;
13807;SDS011;40769;51.512;5.494;2022-07-30T03:50:04;7.80;;;7.18;;
13807;SDS011;40769;51.512;5.494;2022-07-30T03:52:33;6.68;;;6.07;;
13807;SDS011;40769;51.512;5.494;2022-07-30T03:55:04;7.03;;;6.25;;
13807;SDS011;40769;51.512;5.494;2022-07-30T03:57:32;9.30;;;8.50;;
13807;SDS011;40769;51.512;5.494;2022-07-30T03:59:58;9.10;;;8.25;;
13807;SDS011;40769;51.512;5.494;2022-07-30T04:02:24;10.65;;;9.70;;
13807;SDS011;40769;51.512;5.494;2022-07-30T04:04:49;8.75;;;8.02;;
13807;SDS011;40769;51.512;5.494;2022-07-30T04:07:15;11.05;;;10.23;;
13807;SDS011;40769;51.512;5.494;2022-07-30T04:09:41;9.73;;;8.93;;
13807;SDS011;40769;51.512;5.494;2022-07-30T04:12:07;8.68;;;7.97;;
13807;SDS011;40769;51.512;5.494;2022-07-30T04:14:40;11.15;;;10.15;;
13807;SDS011;40769;51.512;5.494;2022-07-30T04:17:08;10.30;;;9.30;;
13807;SDS011;40769;51.512;5.494;2022-07-30T04:19:53;9.55;;;8.75;;
13807;SDS011;40769;51.512;5.494;2022-07-30T04:22:26;10.43;;;8.90;;
13807;SDS011;40769;51.512;5.494;2022-07-30T04:24:54;8.68;;;7.93;;
13807;SDS011;40769;51.512;5.494;2022-07-30T04:27:20;9.10;;;8.40;;
13807;SDS011;40769;51.512;5.494;2022-07-30T04:29:49;8.13;;;7.43;;
13807;SDS011;40769;51.512;5.494;2022-07-30T04:32:15;10.10;;;9.20;;
13807;SDS011;40769;51.512;5.494;2022-07-30T04:34:49;10.63;;;9.73;;
13807;SDS011;40769;51.512;5.494;2022-07-30T04:37:16;7.75;;;7.10;;
13807;SDS011;40769;51.512;5.494;2022-07-30T04:39:43;7.10;;;6.35;;
13807;SDS011;40769;51.512;5.494;2022-07-30T04:42:09;9.48;;;8.75;;
13807;SDS011;40769;51.512;5.494;2022-07-30T04:44:35;9.93;;;9.07;;
13807;SDS011;40769;51.512;5.494;2022-07-30T04:47:02;11.15;;;10.23;;
13807;SDS011;40769;51.512;5.494;2022-07-30T04:49:28;9.63;;;8.73;;
13807;SDS011;40769;51.512;5.494;2022-07-30T04:51:55;10.23;;;9.43;;
13807;SDS011;40769;51.512;5.494;2022-07-30T04:54:21;8.23;;;7.53;;
13807;SDS011;40769;51.512;5.494;2022-07-30T04:56:49;9.52;;;8.68;;
13807;SDS011;40769;51.512;5.494;2022-07-30T04:59:16;12.20;;;11.10;;
13807;SDS011;40769;51.512;5.494;2022-07-30T05:01:43;8.35;;;7.25;;
13807;SDS011;40769;51.512;5.494;2022-07-30T05:04:11;9.82;;;9.00;;
13807;SDS011;40769;51.512;5.494;2022-07-30T05:06:37;7.65;;;6.95;;
13807;SDS011;40769;51.512;5.494;2022-07-30T05:09:05;7.43;;;6.82;;
13807;SDS011;40769;51.512;5.494;2022-07-30T05:11:31;6.20;;;5.65;;
13807;SDS011;40769;51.512;5.494;2022-07-30T05:13:59;5.85;;;5.35;;
13807;SDS011;40769;51.512;5.494;2022-07-30T05:16:25;8.48;;;7.57;;
13807;SDS011;40769;51.512;5.494;2022-07-30T05:18:51;7.55;;;6.95;;
13807;SDS011;40769;51.512;5.494;2022-07-30T05:21:17;8.02;;;7.30;;
13807;SDS011;40769;51.512;5.494;2022-07-30T05:23:42;9.40;;;8.55;;
13807;SDS011;40769;51.512;5.494;2022-07-30T05:26:08;7.57;;;6.22;;
13807;SDS011;40769;51.512;5.494;2022-07-30T05:28:34;6.25;;;5.63;;
13807;SDS011;40769;51.512;5.494;2022-07-30T05:30:59;9.13;;;8.32;;
13807;SDS011;40769;51.512;5.494;2022-07-30T05:33:25;6.80;;;6.20;;
13807;SDS011;40769;51.512;5.494;2022-07-30T05:35:50;5.32;;;4.85;;
13807;SDS011;40769;51.512;5.494;2022-07-30T05:38:16;9.23;;;8.40;;
13807;SDS011;40769;51.512;5.494;2022-07-30T05:40:42;9.73;;;8.93;;
13807;SDS011;40769;51.512;5.494;2022-07-30T05:43:08;9.55;;;8.45;;
13807;SDS011;40769;51.512;5.494;2022-07-30T05:45:34;9.60;;;8.80;;
13807;SDS011;40769;51.512;5.494;2022-07-30T05:48:00;6.70;;;6.10;;
13807;SDS011;40769;51.512;5.494;2022-07-30T05:50:25;6.70;;;6.20;;
13807;SDS011;40769;51.512;5.494;2022-07-30T05:52:51;8.20;;;7.50;;
13807;SDS011;40769;51.512;5.494;2022-07-30T05:55:17;7.35;;;6.72;;
13807;SDS011;40769;51.512;5.494;2022-07-30T05:57:42;6.75;;;6.20;;
13807;SDS011;40769;51.512;5.494;2022-07-30T06:00:08;8.82;;;7.97;;
13807;SDS011;40769;51.512;5.494;2022-07-30T06:02:35;10.70;;;8.45;;
13807;SDS011;40769;51.512;5.494;2022-07-30T06:05:03;7.30;;;6.75;;
13807;SDS011;40769;51.512;5.494;2022-07-30T06:07:28;8.68;;;7.97;;
13807;SDS011;40769;51.512;5.494;2022-07-30T06:09:54;8.13;;;7.32;;
13807;SDS011;40769;51.512;5.494;2022-07-30T06:12:24;8.70;;;7.95;;
13807;SDS011;40769;51.512;5.494;2022-07-30T06:14:50;9.32;;;7.80;;
13807;SDS011;40769;51.512;5.494;2022-07-30T06:17:16;8.43;;;7.72;;
13807;SDS011;40769;51.512;5.494;2022-07-30T06:19:42;7.53;;;6.93;;
13807;SDS011;40769;51.512;5.494;2022-07-30T06:22:07;8.00;;;6.55;;
13807;SDS011;40769;51.512;5.494;2022-07-30T06:24:33;8.23;;;7.57;;
13807;SDS011;40769;51.512;5.494;2022-07-30T06:26:58;5.85;;;5.03;;
13807;SDS011;40769;51.512;5.494;2022-07-30T06:29:24;7.63;;;7.03;;
13807;SDS011;40769;51.512;5.494;2022-07-30T06:31:50;6.32;;;5.68;;
13807;SDS011;40769;51.512;5.494;2022-07-30T06:34:15;7.97;;;7.18;;
13807;SDS011;40769;51.512;5.494;2022-07-30T06:36:41;5.20;;;4.70;;
13807;SDS011;40769;51.512;5.494;2022-07-30T06:39:06;8.10;;;7.07;;
13807;SDS011;40769;51.512;5.494;2022-07-30T06:41:32;6.85;;;6.20;;
13807;SDS011;40769;51.512;5.494;2022-07-30T06:43:57;6.80;;;6.22;;
13807;SDS011;40769;51.512;5.494;2022-07-30T06:46:23;6.78;;;6.07;;
13807;SDS011;40769;51.512;5.494;2022-07-30T06:48:49;6.07;;;5.57;;
13807;SDS011;40769;51.512;5.494;2022-07-30T06:51:14;6.13;;;5.63;;
13807;SDS011;40769;51.512;5.494;2022-07-30T06:53:40;5.45;;;4.95;;
13807;SDS011;40769;51.512;5.494;2022-07-30T06:56:05;6.72;;;5.18;;
13807;SDS011;40769;51.512;5.494;2022-07-30T06:58:31;4.72;;;4.32;;
13807;SDS011;40769;51.512;5.494;2022-07-30T07:00:56;5.00;;;3.63;;
13807;SDS011;40769;51.512;5.494;2022-07-30T07:03:22;5.30;;;4.80;;
13807;SDS011;40769;51.512;5.494;2022-07-30T07:05:50;4.32;;;3.95;;
13807;SDS011;40769;51.512;5.494;2022-07-30T07:08:15;4.43;;;4.13;;
13807;SDS011;40769;51.512;5.494;2022-07-30T07:10:42;4.30;;;3.90;;
13807;SDS011;40769;51.512;5.494;2022-07-30T07:13:08;4.57;;;4.18;;
13807;SDS011;40769;51.512;5.494;2022-07-30T07:15:33;3.83;;;3.53;;
13807;SDS011;40769;51.512;5.494;2022-07-30T07:17:59;3.38;;;3.05;;
13807;SDS011;40769;51.512;5.494;2022-07-30T07:20:24;3.05;;;2.80;;
13807;SDS011;40769;51.512;5.494;2022-07-30T07:22:50;3.30;;;3.00;;
13807;SDS011;40769;51.512;5.494;2022-07-30T07:25:16;2.72;;;2.50;;
13807;SDS011;40769;51.512;5.494;2022-07-30T07:27:41;2.25;;;2.05;;
13807;SDS011;40769;51.512;5.494;2022-07-30T07:30:07;2.75;;;2.35;;
13807;SDS011;40769;51.512;5.494;2022-07-30T07:32:33;3.58;;;2.42;;
13807;SDS011;40769;51.512;5.494;2022-07-30T07:34:59;2.72;;;2.40;;
13807;SDS011;40769;51.512;5.494;2022-07-30T07:37:25;2.20;;;2.00;;
13807;SDS011;40769;51.512;5.494;2022-07-30T07:39:51;2.85;;;2.40;;
13807;SDS011;40769;51.512;5.494;2022-07-30T07:42:16;3.33;;;2.53;;
13807;SDS011;40769;51.512;5.494;2022-07-30T07:44:42;3.72;;;2.50;;
13807;SDS011;40769;51.512;5.494;2022-07-30T07:47:08;1.90;;;1.70;;
13807;SDS011;40769;51.512;5.494;2022-07-30T07:49:33;3.08;;;2.47;;
13807;SDS011;40769;51.512;5.494;2022-07-30T07:51:59;3.67;;;2.60;;
13807;SDS011;40769;51.512;5.494;2022-07-30T07:54:24;2.78;;;2.35;;
13807;SDS011;40769;51.512;5.494;2022-07-30T07:56:50;2.90;;;1.98;;
13807;SDS011;40769;51.512;5.494;2022-07-30T07:59:16;2.38;;;1.88;;
13807;SDS011;40769;51.512;5.494;2022-07-30T08:01:41;2.35;;;2.00;;
13807;SDS011;40769;51.512;5.494;2022-07-30T08:04:07;2.20;;;2.00;;
13807;SDS011;40769;51.512;5.494;2022-07-30T08:06:33;2.22;;;2.03;;
13807;SDS011;40769;51.512;5.494;2022-07-30T08:09:00;2.47;;;1.60;;
13807;SDS011;40769;51.512;5.494;2022-07-30T08:11:26;2.17;;;1.90;;
13807;SDS011;40769;51.512;5.494;2022-07-30T08:13:52;2.60;;;2.40;;
13807;SDS011;40769;51.512;5.494;2022-07-30T08:16:17;3.80;;;2.65;;
13807;SDS011;40769;51.512;5.494;2022-07-30T08:18:43;2.92;;;2.08;;
13807;SDS011;40769;51.512;5.494;2022-07-30T08:21:09;2.30;;;2.10;;
13807;SDS011;40769;51.512;5.494;2022-07-30T08:23:34;2.20;;;2.00;;
13807;SDS011;40769;51.512;5.494;2022-07-30T08:26:00;2.13;;;1.67;;
13807;SDS011;40769;51.512;5.494;2022-07-30T08:28:26;2.08;;;1.88;;
13807;SDS011;40769;51.512;5.494;2022-07-30T08:30:52;2.03;;;1.70;;
13807;SDS011;40769;51.512;5.494;2022-07-30T08:33:17;1.77;;;1.60;;
13807;SDS011;40769;51.512;5.494;2022-07-30T08:35:43;3.38;;;2.40;;
13807;SDS011;40769;51.512;5.494;2022-07-30T08:38:09;2.55;;;1.98;;
13807;SDS011;40769;51.512;5.494;2022-07-30T08:40:36;1.75;;;1.60;;
13807;SDS011;40769;51.512;5.494;2022-07-30T08:43:02;2.75;;;2.15;;
13807;SDS011;40769;51.512;5.494;2022-07-30T08:45:34;3.38;;;2.08;;
13807;SDS011;40769;51.512;5.494;2022-07-30T08:48:01;2.38;;;2.17;;
13807;SDS011;40769;51.512;5.494;2022-07-30T08:50:31;2.33;;;1.90;;
13807;SDS011;40769;51.512;5.494;2022-07-30T08:52:58;1.67;;;1.58;;
13807;SDS011;40769;51.512;5.494;2022-07-30T08:55:26;1.80;;;1.70;;
13807;SDS011;40769;51.512;5.494;2022-07-30T08:57:52;1.70;;;1.60;;
13807;SDS011;40769;51.512;5.494;2022-07-30T09:00:19;3.45;;;2.10;;
13807;SDS011;40769;51.512;5.494;2022-07-30T09:02:45;3.17;;;1.90;;
13807;SDS011;40769;51.512;5.494;2022-07-30T09:05:11;2.33;;;2.00;;
13807;SDS011;40769;51.512;5.494;2022-07-30T09:07:37;2.90;;;1.80;;
13807;SDS011;40769;51.512;5.494;2022-07-30T09:10:04;2.78;;;1.75;;
13807;SDS011;40769;51.512;5.494;2022-07-30T09:12:40;1.50;;;1.40;;
13807;SDS011;40769;51.512;5.494;2022-07-30T09:15:17;1.98;;;1.80;;
13807;SDS011;40769;51.512;5.494;2022-07-30T09:17:45;1.95;;;1.80;;
13807;SDS011;40769;51.512;5.494;2022-07-30T09:20:12;2.72;;;1.77;;
13807;SDS011;40769;51.512;5.494;2022-07-30T09:22:41;2.38;;;1.90;;
13807;SDS011;40769;51.512;5.494;2022-07-30T09:25:09;2.72;;;1.70;;
13807;SDS011;40769;51.512;5.494;2022-07-30T09:27:56;1.60;;;1.50;;
13807;SDS011;40769;51.512;5.494;2022-07-30T09:30:20;1.73;;;1.50;;
13807;SDS011;40769;51.512;5.494;2022-07-30T09:32:47;2.20;;;1.60;;
13807;SDS011;40769;51.512;5.494;2022-07-30T09:35:13;1.70;;;1.58;;
13807;SDS011;40769;51.512;5.494;2022-07-30T09:37:39;3.03;;;1.90;;
13807;SDS011;40769;51.512;5.494;2022-07-30T09:40:12;1.65;;;1.38;;
13807;SDS011;40769;51.512;5.494;2022-07-30T09:42:41;1.50;;;1.20;;
13807;SDS011;40769;51.512;5.494;2022-07-30T09:45:13;2.47;;;1.63;;
13807;SDS011;40769;51.512;5.494;2022-07-30T09:47:40;2.42;;;1.50;;
13807;SDS011;40769;51.512;5.494;2022-07-30T09:50:09;1.52;;;1.42;;
13807;SDS011;40769;51.512;5.494;2022-07-30T09:52:38;2.97;;;1.48;;
13807;SDS011;40769;51.512;5.494;2022-07-30T09:55:05;2.13;;;1.70;;
13807;SDS011;40769;51.512;5.494;2022-07-30T09:57:31;2.22;;;1.73;;
13807;SDS011;40769;51.512;5.494;2022-07-30T09:59:57;1.52;;;1.23;;
13807;SDS011;40769;51.512;5.494;2022-07-30T10:02:39;2.28;;;1.75;;
13807;SDS011;40769;51.512;5.494;2022-07-30T10:05:11;1.40;;;1.30;;
13807;SDS011;40769;51.512;5.494;2022-07-30T10:07:38;1.50;;;1.40;;
13807;SDS011;40769;51.512;5.494;2022-07-30T10:10:04;1.85;;;1.45;;
13807;SDS011;40769;51.512;5.494;2022-07-30T10:12:31;1.60;;;1.50;;
13807;SDS011;40769;51.512;5.494;2022-07-30T10:14:57;2.75;;;1.70;;
13807;SDS011;40769;51.512;5.494;2022-07-30T10:17:26;2.45;;;1.70;;
13807;SDS011;40769;51.512;5.494;2022-07-30T10:19:55;1.65;;;1.50;;
13807;SDS011;40769;51.512;5.494;2022-07-30T10:22:21;1.30;;;1.20;;
13807;SDS011;40769;51.512;5.494;2022-07-30T10:24:47;1.50;;;1.33;;
13807;SDS011;40769;51.512;5.494;2022-07-30T10:27:15;1.17;;;1.08;;
13807;SDS011;40769;51.512;5.494;2022-07-30T10:29:40;1.45;;;1.30;;
13807;SDS011;40769;51.512;5.494;2022-07-30T10:32:07;1.30;;;1.10;;
13807;SDS011;40769;51.512;5.494;2022-07-30T10:34:33;1.52;;;1.40;;
13807;SDS011;40769;51.512;5.494;2022-07-30T10:36:59;1.58;;;1.48;;
13807;SDS011;40769;51.512;5.494;2022-07-30T10:39:38;1.10;;;1.00;;
13807;SDS011;40769;51.512;5.494;2022-07-30T10:47:31;1.10;;;1.00;;
13807;SDS011;40769;51.512;5.494;2022-07-30T10:50:09;1.88;;;1.60;;
13807;SDS011;40769;51.512;5.494;2022-07-30T10:52:42;2.03;;;1.50;;
13807;SDS011;40769;51.512;5.494;2022-07-30T10:55:13;1.42;;;1.30;;
13807;SDS011;40769;51.512;5.494;2022-07-30T11:00:23;1.27;;;1.17;;
13807;SDS011;40769;51.512;5.494;2022-07-30T11:03:31;1.30;;;1.20;;
13807;SDS011;40769;51.512;5.494;2022-07-30T11:05:38;1.40;;;1.30;;
13807;SDS011;40769;51.512;5.494;2022-07-30T11:10:57;1.45;;;1.20;;
13807;SDS011;40769;51.512;5.494;2022-07-30T11:16:13;1.38;;;1.27;;
13807;SDS011;40769;51.512;5.494;2022-07-30T11:21:26;2.65;;;1.40;;
13807;SDS011;40769;51.512;5.494;2022-07-30T11:23:51;1.63;;;1.48;;
13807;SDS011;40769;51.512;5.494;2022-07-30T11:35:40;1.63;;;1.33;;
13807;SDS011;40769;51.512;5.494;2022-07-30T11:38:05;1.63;;;1.05;;
13807;SDS011;40769;51.512;5.494;2022-07-30T11:40:37;1.52;;;1.23;;
13807;SDS011;40769;51.512;5.494;2022-07-30T11:46:04;1.83;;;1.15;;
13807;SDS011;40769;51.512;5.494;2022-07-30T11:48:30;1.38;;;1.20;;
13807;SDS011;40769;51.512;5.494;2022-07-30T11:50:56;1.40;;;1.30;;
13807;SDS011;40769;51.512;5.494;2022-07-30T11:53:22;2.40;;;1.45;;
13807;SDS011;40769;51.512;5.494;2022-07-30T12:01:02;1.30;;;1.20;;
13807;SDS011;40769;51.512;5.494;2022-07-30T12:03:30;1.50;;;1.40;;
13807;SDS011;40769;51.512;5.494;2022-07-30T12:06:06;1.77;;;1.30;;
13807;SDS011;40769;51.512;5.494;2022-07-30T12:08:40;3.28;;;1.65;;
13807;SDS011;40769;51.512;5.494;2022-07-30T12:11:13;1.65;;;1.48;;
13807;SDS011;40769;51.512;5.494;2022-07-30T12:13:41;1.65;;;1.30;;
13807;SDS011;40769;51.512;5.494;2022-07-30T12:16:11;1.40;;;1.30;;
13807;SDS011;40769;51.512;5.494;2022-07-30T12:18:38;1.52;;;1.38;;
13807;SDS011;40769;51.512;5.494;2022-07-30T12:21:05;2.10;;;1.30;;
13807;SDS011;40769;51.512;5.494;2022-07-30T12:23:39;1.90;;;1.55;;
13807;SDS011;40769;51.512;5.494;2022-07-30T12:26:18;2.75;;;1.40;;
13807;SDS011;40769;51.512;5.494;2022-07-30T12:28:45;2.05;;;1.60;;
13807;SDS011;40769;51.512;5.494;2022-07-30T12:31:14;2.10;;;1.60;;
13807;SDS011;40769;51.512;5.494;2022-07-30T12:33:40;1.60;;;1.50;;
13807;SDS011;40769;51.512;5.494;2022-07-30T12:36:06;2.25;;;1.67;;
13807;SDS011;40769;51.512;5.494;2022-07-30T12:38:41;2.78;;;2.55;;
13807;SDS011;40769;51.512;5.494;2022-07-30T12:41:14;3.35;;;2.58;;
13807;SDS011;40769;51.512;5.494;2022-07-30T12:51:31;4.28;;;3.47;;
13807;SDS011;40769;51.512;5.494;2022-07-30T12:53:58;3.10;;;2.58;;
13807;SDS011;40769;51.512;5.494;2022-07-30T12:56:25;4.82;;;4.32;;
13807;SDS011;40769;51.512;5.494;2022-07-30T12:58:52;4.95;;;3.72;;
13807;SDS011;40769;51.512;5.494;2022-07-30T13:04:04;2.95;;;2.72;;
13807;SDS011;40769;51.512;5.494;2022-07-30T13:06:30;3.08;;;2.83;;
13807;SDS011;40769;51.512;5.494;2022-07-30T13:08:56;3.63;;;2.92;;
13807;SDS011;40769;51.512;5.494;2022-07-30T13:11:45;3.67;;;2.50;;
13807;SDS011;40769;51.512;5.494;2022-07-30T13:14:10;2.00;;;1.90;;
13807;SDS011;40769;51.512;5.494;2022-07-30T13:16:37;2.28;;;1.90;;
13807;SDS011;40769;51.512;5.494;2022-07-30T13:19:07;2.38;;;2.17;;
13807;SDS011;40769;51.512;5.494;2022-07-30T13:21:38;2.00;;;1.80;;
13807;SDS011;40769;51.512;5.494;2022-07-30T13:24:04;2.15;;;1.98;;
13807;SDS011;40769;51.512;5.494;2022-07-30T13:26:30;2.85;;;1.70;;
13807;SDS011;40769;51.512;5.494;2022-07-30T13:28:57;2.15;;;1.95;;
13807;SDS011;40769;51.512;5.494;2022-07-30T13:31:23;1.70;;;1.60;;
13807;SDS011;40769;51.512;5.494;2022-07-30T13:33:49;1.70;;;1.60;;
13807;SDS011;40769;51.512;5.494;2022-07-30T13:36:15;1.50;;;1.40;;
13807;SDS011;40769;51.512;5.494;2022-07-30T13:38:41;2.05;;;1.85;;
13807;SDS011;40769;51.512;5.494;2022-07-30T13:41:08;1.70;;;1.60;;
13807;SDS011;40769;51.512;5.494;2022-07-30T13:43:33;2.75;;;2.00;;
13807;SDS011;40769;51.512;5.494;2022-07-30T13:46:00;2.28;;;1.88;;
13807;SDS011;40769;51.512;5.494;2022-07-30T13:48:29;1.63;;;1.50;;
13807;SDS011;40769;51.512;5.494;2022-07-30T13:50:59;1.80;;;1.60;;
13807;SDS011;40769;51.512;5.494;2022-07-30T13:53:25;2.40;;;2.20;;
13807;SDS011;40769;51.512;5.494;2022-07-30T13:55:52;2.15;;;1.90;;
13807;SDS011;40769;51.512;5.494;2022-07-30T13:58:18;1.60;;;1.50;;
13807;SDS011;40769;51.512;5.494;2022-07-30T14:00:48;2.38;;;1.75;;
13807;SDS011;40769;51.512;5.494;2022-07-30T14:03:15;1.30;;;1.20;;
13807;SDS011;40769;51.512;5.494;2022-07-30T14:05:40;2.35;;;2.15;;
13807;SDS011;40769;51.512;5.494;2022-07-30T14:08:07;2.67;;;1.90;;
13807;SDS011;40769;51.512;5.494;2022-07-30T14:10:34;2.25;;;1.60;;
13807;SDS011;40769;51.512;5.494;2022-07-30T14:13:02;2.20;;;2.00;;
13807;SDS011;40769;51.512;5.494;2022-07-30T14:15:28;3.35;;;2.30;;
13807;SDS011;40769;51.512;5.494;2022-07-30T14:17:55;2.20;;;1.70;;
13807;SDS011;40769;51.512;5.494;2022-07-30T14:20:20;1.77;;;1.65;;
13807;SDS011;40769;51.512;5.494;2022-07-30T14:22:46;2.50;;;1.85;;
13807;SDS011;40769;51.512;5.494;2022-07-30T14:25:12;2.20;;;1.80;;
13807;SDS011;40769;51.512;5.494;2022-07-30T14:27:38;2.70;;;1.75;;
13807;SDS011;40769;51.512;5.494;2022-07-30T14:30:04;2.13;;;1.92;;
13807;SDS011;40769;51.512;5.494;2022-07-30T14:32:31;2.65;;;1.95;;
13807;SDS011;40769;51.512;5.494;2022-07-30T14:34:56;1.73;;;1.55;;
13807;SDS011;40769;51.512;5.494;2022-07-30T14:37:22;1.60;;;1.50;;
13807;SDS011;40769;51.512;5.494;2022-07-30T14:39:48;1.40;;;1.30;;
13807;SDS011;40769;51.512;5.494;2022-07-30T14:42:14;1.55;;;1.40;;
13807;SDS011;40769;51.512;5.494;2022-07-30T14:44:39;2.72;;;2.00;;
13807;SDS011;40769;51.512;5.494;2022-07-30T14:47:05;3.35;;;2.03;;
13807;SDS011;40769;51.512;5.494;2022-07-30T14:49:31;2.10;;;1.90;;
13807;SDS011;40769;51.512;5.494;2022-07-30T14:51:56;1.60;;;1.50;;
13807;SDS011;40769;51.512;5.494;2022-07-30T14:54:22;2.78;;;2.30;;
13807;SDS011;40769;51.512;5.494;2022-07-30T14:56:48;2.00;;;1.80;;
13807;SDS011;40769;51.512;5.494;2022-07-30T14:59:14;2.53;;;2.00;;
13807;SDS011;40769;51.512;5.494;2022-07-30T15:01:39;2.30;;;1.40;;
13807;SDS011;40769;51.512;5.494;2022-07-30T15:04:06;1.60;;;1.38;;
13807;SDS011;40769;51.512;5.494;2022-07-30T15:06:33;2.28;;;1.75;;
13807;SDS011;40769;51.512;5.494;2022-07-30T15:08:59;2.05;;;1.85;;
13807;SDS011;40769;51.512;5.494;2022-07-30T15:11:25;2.53;;;1.90;;
13807;SDS011;40769;51.512;5.494;2022-07-30T15:13:56;1.50;;;1.40;;
13807;SDS011;40769;51.512;5.494;2022-07-30T15:16:22;1.92;;;1.70;;
13807;SDS011;40769;51.512;5.494;2022-07-30T15:18:47;2.25;;;2.05;;
13807;SDS011;40769;51.512;5.494;2022-07-30T15:21:13;1.55;;;1.45;;
13807;SDS011;40769;51.512;5.494;2022-07-30T15:23:38;1.33;;;1.23;;
13807;SDS011;40769;51.512;5.494;2022-07-30T15:26:04;2.47;;;1.38;;
13807;SDS011;40769;51.512;5.494;2022-07-30T15:28:29;2.47;;;1.70;;
13807;SDS011;40769;51.512;5.494;2022-07-30T15:30:57;2.17;;;1.98;;
13807;SDS011;40769;51.512;5.494;2022-07-30T15:33:23;1.60;;;1.50;;
13807;SDS011;40769;51.512;5.494;2022-07-30T15:35:49;1.67;;;1.30;;
13807;SDS011;40769;51.512;5.494;2022-07-30T15:38:17;3.40;;;1.65;;